Leiters Ford, Indiana
Current Conditions -  °F | °C
As of 5:35 AM on Saturday 25 Oct 2014 (Local Time) from KRCR Reporting Station
Clear Clear  
Wind Chill: 55°   Ceiling: Unl
Heat Index: 55°   Visibility: 7mi
Dew Point: 52°   Wind: 3mph
Humidity: 88%   Direction: 220°SW
Pressure: 29.92"   Gusts: NA
Location:  41.12°N, 86.39°W
Report Text: KRCR 250935Z AUTO 22003KT 7SM CLR 13/11 A2992 RMK AO2
Loading
Personal Weather Stations






























Interactive Weather Map
Tropical Storm Tracking
New forecast layout! Learn more

10-Day Weather Forecast

Advertisements
Track Severe Weather on mobile